Time;durP1;ratioP1;P1;durP2;ratioP2;P2;SDS_P1;SDS_P2;PMS_P1;PMS_P2;Temp;Humidity;BMP_temperature;BMP_pressure;BME280_temperature;BME280_humidity;BME280_pressure;Samples;Min_cycle;Max_cycle;Signal;HPM_P1;HPM_P2
2024/02/26 06:42:36;;;;;;;2.90;1.75;;;;;;;;;;10584213;27;20405;-82
2024/02/26 06:47:37;;;;;;;1.67;1.10;;;;;;;;;;10584371;28;20020;-82
2024/02/26 06:52:39;;;;;;;1.92;1.17;;;;;;;;;;10588047;28;20086;-82
2024/02/26 06:57:39;;;;;;;;;;;;;;;;;;10587699;28;20054;-82
2024/02/26 07:02:41;;;;;;;2.83;1.33;;;;;;;;;;10616757;28;19910;-83
2024/02/26 07:07:42;;;;;;;;;;;;;;;;;;10601011;28;20479;-84
2024/02/26 07:12:43;;;;;;;1.80;1.15;;;;;;;;;;10604210;28;19907;-82
2024/02/26 07:17:47;;;;;;;3.75;2.35;;;;;;;;;;10621852;28;20011;-82
2024/02/26 07:22:48;;;;;;;3.10;1.95;;;;;;;;;;10595672;28;20027;-83
2024/02/26 07:27:49;;;;;;;2.25;1.58;;;;;;;;;;10587259;28;20024;-83
2024/02/26 07:32:50;;;;;;;3.22;1.70;;;;;;;;;;10584308;28;20118;-84
2024/02/26 07:37:51;;;;;;;;;;;;;;;;;;10584810;28;20063;-83
2024/02/26 07:42:52;;;;;;;2.17;1.45;;;;;;;;;;10583858;28;19911;-84
2024/02/26 07:47:53;;;;;;;2.10;1.65;;;;;;;;;;10586505;28;20028;-83
2024/02/26 07:52:54;;;;;;;2.33;1.60;;;;;;;;;;10564501;28;20020;-83
2024/02/26 07:57:56;;;;;;;2.40;1.40;;;;;;;;;;10564771;28;20097;-83
2024/02/26 08:02:57;;;;;;;;;;;;;;;;;;10572157;28;20077;-84
2024/02/26 08:07:58;;;;;;;1.92;1.10;;;;;;;;;;10556827;28;20363;-82
2024/02/26 08:13:04;;;;;;;2.80;1.20;;;;;;;;;;10557478;28;20456;-82
2024/02/26 08:18:06;;;;;;;3.78;1.40;;;;;;;;;;10558349;28;20029;-82
2024/02/26 08:23:07;;;;;;;;;;;;;;;;;;10558891;28;20035;-83
2024/02/26 08:28:08;;;;;;;3.47;1.45;;;;;;;;;;10562880;28;19973;-83
2024/02/26 08:33:09;;;;;;;;;;;;;;;;;;10566278;28;20107;-84
2024/02/26 08:38:10;;;;;;;3.58;1.95;;;;;;;;;;10574261;28;19927;-83
2024/02/26 08:43:11;;;;;;;3.53;1.90;;;;;;;;;;10581616;28;20032;-83
2024/02/26 08:48:12;;;;;;;;;;;;;;;;;;10556394;28;20031;-85
2024/02/26 08:53:13;;;;;;;3.20;1.52;;;;;;;;;;10556935;28;19908;-84
2024/02/26 08:58:14;;;;;;;2.40;1.45;;;;;;;;;;10555074;28;20194;-84
2024/02/26 09:03:15;;;;;;;;;;;;;;;;;;10553418;28;20099;-83
2024/02/26 09:08:16;;;;;;;1.73;1.55;;;;;;;;;;10554627;28;19908;-84
2024/02/26 09:13:18;;;;;;;;;;;;;;;;;;10556762;28;20020;-85
2024/02/26 09:18:19;;;;;;;3.30;1.52;;;;;;;;;;10555472;28;19918;-84
2024/02/26 09:23:20;;;;;;;;;;;;;;;;;;10551963;28;20052;-83
2024/02/26 09:28:21;;;;;;;2.83;1.63;;;;;;;;;;10545903;28;20268;-84
2024/02/26 09:33:22;;;;;;;;;;;;;;;;;;10548854;28;20354;-84
2024/02/26 09:38:23;;;;;;;2.92;1.40;;;;;;;;;;10550877;28;19920;-84
2024/02/26 09:43:26;;;;;;;4.82;2.38;;;;;;;;;;10555165;28;20033;-83
2024/02/26 09:48:27;;;;;;;3.25;2.00;;;;;;;;;;10553105;28;20032;-85
2024/02/26 09:53:28;;;;;;;;;;;;;;;;;;10553119;28;20053;-83
2024/02/26 09:58:29;;;;;;;3.90;2.08;;;;;;;;;;10557052;28;19956;-84
2024/02/26 10:03:40;;;;;;;3.08;2.20;;;;;;;;;;10575058;28;20010;-82
2024/02/26 10:08:41;;;;;;;1.80;1.38;;;;;;;;;;10545282;22;20134;-79
2024/02/26 10:13:42;;;;;;;2.78;1.67;;;;;;;;;;10505630;28;20028;-80
2024/02/26 10:18:42;;;;;;;;;;;;;;;;;;10511903;28;20028;-80
2024/02/26 10:23:45;;;;;;;3.22;1.92;;;;;;;;;;10508090;28;19908;-80
2024/02/26 10:28:49;;;;;;;3.97;2.05;;;;;;;;;;10513869;28;20029;-81
2024/02/26 10:33:51;;;;;;;2.28;1.60;;;;;;;;;;10508633;28;20085;-81
2024/02/26 10:38:53;;;;;;;2.97;1.80;;;;;;;;;;10514493;28;20086;-82
2024/02/26 10:44:04;;;;;;;2.38;1.63;;;;;;;;;;10512841;28;20021;-81
2024/02/26 10:49:07;;;;;;;3.17;1.80;;;;;;;;;;10509745;28;20094;-82
2024/02/26 10:54:10;;;;;;;1.60;1.30;;;;;;;;;;10511624;28;20028;-81
2024/02/26 10:59:20;;;;;;;4.10;2.25;;;;;;;;;;10510479;28;20055;-82
2024/02/26 11:04:27;;;;;;;5.00;3.43;;;;;;;;;;10509212;28;20037;-82
2024/02/26 11:09:28;;;;;;;2.97;2.13;;;;;;;;;;10517046;28;20040;-82
2024/02/26 11:14:31;;;;;;;5.20;2.92;;;;;;;;;;10517294;28;20034;-82
2024/02/26 11:19:33;;;;;;;3.72;2.67;;;;;;;;;;10517499;28;20495;-82
2024/02/26 11:24:40;;;;;;;3.55;2.42;;;;;;;;;;10533367;28;20028;-83
2024/02/26 11:29:45;;;;;;;4.35;3.10;;;;;;;;;;10522859;28;20139;-81
2024/02/26 11:34:46;;;;;;;4.07;2.75;;;;;;;;;;10521240;28;20100;-82
2024/02/26 11:39:47;;;;;;;5.78;3.45;;;;;;;;;;10524445;28;20045;-82
2024/02/26 11:44:48;;;;;;;;;;;;;;;;;;10526288;28;20107;-82
2024/02/26 11:49:50;;;;;;;6.78;4.13;;;;;;;;;;10526059;28;19972;-82
2024/02/26 11:54:55;;;;;;;8.75;4.72;;;;;;;;;;10511947;28;20039;-81
2024/02/26 11:59:57;;;;;;;6.32;3.45;;;;;;;;;;10528644;28;20356;-81
2024/02/26 12:05:03;;;;;;;5.50;3.60;;;;;;;;;;10525307;28;20086;-83
2024/02/26 12:10:17;;;;;;;3.83;2.42;;;;;;;;;;10524773;28;20399;-82
2024/02/26 12:15:23;;;;;;;7.35;3.20;;;;;;;;;;10524560;28;20025;-82
2024/02/26 12:20:36;;;;;;;4.93;3.80;;;;;;;;;;10525039;28;20033;-82
2024/02/26 12:25:37;;;;;;;9.68;4.82;;;;;;;;;;10524602;28;20076;-82
2024/02/26 12:30:47;;;;;;;5.60;3.67;;;;;;;;;;10523794;28;20028;-82
2024/02/26 12:35:49;;;;;;;6.15;3.40;;;;;;;;;;10521346;28;20039;-81
2024/02/26 12:41:02;;;;;;;5.68;3.75;;;;;;;;;;10516440;28;20037;-81
2024/02/26 12:46:04;;;;;;;5.88;4.65;;;;;;;;;;10510713;28;20075;-82
2024/02/26 12:51:05;;;;;;;4.18;3.17;;;;;;;;;;10519923;28;20025;-81
2024/02/26 12:56:08;;;;;;;4.85;2.63;;;;;;;;;;10514160;28;20022;-80
2024/02/26 13:01:14;;;;;;;3.17;2.17;;;;;;;;;;10514122;28;20507;-81
2024/02/26 13:06:16;;;;;;;2.97;2.17;;;;;;;;;;10511225;28;20380;-81
2024/02/26 13:11:17;;;;;;;4.97;2.35;;;;;;;;;;10510813;28;20133;-81
2024/02/26 13:16:27;;;;;;;4.22;3.17;;;;;;;;;;10510603;28;20048;-81
2024/02/26 13:21:28;;;;;;;3.33;2.30;;;;;;;;;;10509006;28;20040;-80
2024/02/26 13:26:29;;;;;;;4.60;3.03;;;;;;;;;;10509674;28;20134;-81
2024/02/26 13:31:30;;;;;;;4.68;2.47;;;;;;;;;;10506830;28;20194;-81
2024/02/26 13:36:32;;;;;;;3.35;2.83;;;;;;;;;;10507789;28;20101;-81
2024/02/26 13:41:33;;;;;;;;;;;;;;;;;;10507571;28;20030;-81
2024/02/26 13:46:34;;;;;;;6.60;3.10;;;;;;;;;;10508384;28;19908;-81
2024/02/26 13:51:36;;;;;;;3.15;1.88;;;;;;;;;;10504807;28;20112;-81
2024/02/26 13:56:37;;;;;;;3.85;2.30;;;;;;;;;;10506084;28;20071;-80
2024/02/26 14:01:38;;;;;;;4.18;2.28;;;;;;;;;;10507739;28;20035;-83
2024/02/26 14:06:40;;;;;;;3.38;2.75;;;;;;;;;;10515014;28;20097;-83
2024/02/26 14:11:42;;;;;;;5.68;2.70;;;;;;;;;;10529061;28;20021;-82
2024/02/26 14:16:43;;;;;;;3.30;2.15;;;;;;;;;;10505192;28;20571;-82
2024/02/26 14:21:44;;;;;;;3.65;2.20;;;;;;;;;;10508307;28;20131;-83
2024/02/26 14:26:46;;;;;;;;;;;;;;;;;;10510126;28;20025;-82
2024/02/26 14:31:47;;;;;;;3.00;2.65;;;;;;;;;;10509091;28;19950;-81
2024/02/26 14:36:48;;;;;;;3.78;2.53;;;;;;;;;;10506764;28;20119;-83
2024/02/26 14:41:49;;;;;;;;;;;;;;;;;;10508665;28;20107;-82
2024/02/26 14:46:50;;;;;;;3.70;2.33;;;;;;;;;;10509853;28;19912;-82
2024/02/26 14:51:52;;;;;;;4.18;1.63;;;;;;;;;;10510197;28;20079;-82
2024/02/26 14:56:53;;;;;;;4.63;2.17;;;;;;;;;;10510025;28;20100;-83
2024/02/26 15:01:56;;;;;;;3.55;2.70;;;;;;;;;;10509834;28;20104;-82
2024/02/26 15:06:57;;;;;;;3.28;2.22;;;;;;;;;;10517025;28;20036;-82
2024/02/26 15:11:58;;;;;;;3.47;2.00;;;;;;;;;;10515267;28;20025;-82
2024/02/26 15:16:59;;;;;;;3.88;2.42;;;;;;;;;;10509954;28;20092;-80
2024/02/26 15:22:00;;;;;;;3.70;2.20;;;;;;;;;;10520893;28;20041;-81
2024/02/26 15:27:03;;;;;;;3.08;2.22;;;;;;;;;;10516380;28;20064;-82
2024/02/26 15:32:04;;;;;;;3.08;1.98;;;;;;;;;;10515936;28;20051;-82
2024/02/26 15:37:05;;;;;;;3.85;1.88;;;;;;;;;;10514803;28;20504;-83
2024/02/26 15:42:06;;;;;;;4.18;1.83;;;;;;;;;;10516727;28;20088;-81
2024/02/26 15:47:07;;;;;;;4.32;2.55;;;;;;;;;;10517289;28;20029;-82
2024/02/26 15:52:08;;;;;;;;;;;;;;;;;;10515115;28;20029;-82
2024/02/26 15:57:12;;;;;;;2.90;2.30;;;;;;;;;;10513982;28;19908;-81
2024/02/26 16:02:13;;;;;;;3.80;2.95;;;;;;;;;;10516800;28;20093;-82
2024/02/26 16:07:14;;;;;;;;;;;;;;;;;;10591091;22;20036;-81
2024/02/26 16:12:19;;;;;;;3.40;1.52;;;;;;;;;;10561572;28;19904;-81
2024/02/26 16:17:23;;;;;;;3.78;1.50;;;;;;;;;;10559693;28;20024;-80
2024/02/26 16:22:25;;;;;;;3.35;2.40;;;;;;;;;;10562695;28;20061;-83
2024/02/26 16:27:26;;;;;;;4.75;2.55;;;;;;;;;;10565086;28;20460;-82
2024/02/26 16:32:27;;;;;;;3.42;2.88;;;;;;;;;;10557712;28;20114;-83
2024/02/26 16:37:29;;;;;;;3.92;2.55;;;;;;;;;;10554932;28;20059;-83
2024/02/26 16:42:30;;;;;;;3.33;2.38;;;;;;;;;;10552674;28;20448;-83
2024/02/26 16:47:31;;;;;;;4.25;2.35;;;;;;;;;;10555685;28;20043;-82
2024/02/26 16:52:33;;;;;;;3.92;3.20;;;;;;;;;;10554041;28;20481;-82
2024/02/26 16:57:34;;;;;;;4.75;3.15;;;;;;;;;;10554026;28;20024;-82
2024/02/26 17:02:35;;;;;;;3.88;2.70;;;;;;;;;;10555389;28;20471;-83
2024/02/26 17:07:36;;;;;;;4.57;3.30;;;;;;;;;;10552831;28;20035;-82
2024/02/26 17:12:37;;;;;;;4.03;3.10;;;;;;;;;;10552296;28;20031;-82
2024/02/26 17:17:38;;;;;;;3.33;1.95;;;;;;;;;;10556695;28;20035;-80
2024/02/26 17:22:39;;;;;;;3.92;2.63;;;;;;;;;;10554917;28;20032;-80
2024/02/26 17:27:41;;;;;;;6.10;3.65;;;;;;;;;;10578727;28;20028;-81
2024/02/26 17:32:42;;;;;;;5.35;3.92;;;;;;;;;;10585408;28;20032;-82
2024/02/26 17:37:44;;;;;;;5.47;4.47;;;;;;;;;;10551549;28;20441;-81
2024/02/26 17:42:45;;;;;;;4.55;3.05;;;;;;;;;;10553168;28;20035;-80
2024/02/26 17:47:46;;;;;;;4.78;4.03;;;;;;;;;;10579347;28;20056;-81
2024/02/26 17:52:49;;;;;;;4.57;3.80;;;;;;;;;;10591949;28;20020;-82
2024/02/26 17:57:50;;;;;;;5.10;3.88;;;;;;;;;;10589565;28;20021;-82
2024/02/26 18:02:51;;;;;;;6.07;5.05;;;;;;;;;;10570146;28;20063;-82
2024/02/26 18:07:52;;;;;;;7.50;5.30;;;;;;;;;;10554349;28;20044;-82
2024/02/26 18:12:58;;;;;;;8.20;5.75;;;;;;;;;;10554053;28;20074;-82
2024/02/26 18:17:59;;;;;;;7.85;6.82;;;;;;;;;;10554872;28;20027;-82
2024/02/26 18:23:00;;;;;;;8.63;7.20;;;;;;;;;;10553025;28;20024;-82
2024/02/26 18:28:01;;;;;;;11.50;10.30;;;;;;;;;;10553991;28;20035;-82
2024/02/26 18:33:03;;;;;;;5.45;4.20;;;;;;;;;;10556185;28;20032;-82
2024/02/26 18:38:04;;;;;;;5.35;4.18;;;;;;;;;;10561775;28;20395;-81
2024/02/26 18:43:05;;;;;;;6.70;5.38;;;;;;;;;;10556101;28;20052;-82
2024/02/26 18:48:07;;;;;;;7.22;5.75;;;;;;;;;;10564303;28;20057;-82
2024/02/26 18:53:08;;;;;;;7.25;6.10;;;;;;;;;;10570556;28;20045;-81
2024/02/26 18:58:09;;;;;;;8.95;7.10;;;;;;;;;;10589291;28;20028;-81
2024/02/26 19:03:10;;;;;;;4.82;3.78;;;;;;;;;;10560965;28;20029;-81
2024/02/26 19:08:11;;;;;;;8.80;6.28;;;;;;;;;;10562368;28;20036;-81
2024/02/26 19:13:12;;;;;;;7.43;5.75;;;;;;;;;;10562934;28;20028;-81
2024/02/26 19:18:13;;;;;;;7.07;5.82;;;;;;;;;;10557262;28;20088;-81
2024/02/26 19:23:14;;;;;;;7.00;5.30;;;;;;;;;;10562277;28;20472;-81
2024/02/26 19:28:15;;;;;;;9.55;8.23;;;;;;;;;;10559906;28;20028;-82
2024/02/26 19:33:16;;;;;;;6.35;5.13;;;;;;;;;;10554950;28;20028;-82
2024/02/26 19:38:18;;;;;;;7.13;4.43;;;;;;;;;;10558261;28;20032;-82
2024/02/26 19:43:19;;;;;;;7.57;6.20;;;;;;;;;;10555199;28;20040;-83
2024/02/26 19:48:20;;;;;;;12.30;7.63;;;;;;;;;;10558230;28;20024;-82
2024/02/26 19:53:21;;;;;;;9.90;7.43;;;;;;;;;;10567562;28;20020;-80
2024/02/26 19:58:22;;;;;;;10.48;8.07;;;;;;;;;;10589443;28;20083;-80
2024/02/26 20:03:23;;;;;;;6.80;5.15;;;;;;;;;;10589732;28;20016;-81
